createdAt,value
2022-08-28T00:00:51.481Z,97209.09
2022-08-28T00:03:22.024Z,97216.94
2022-08-28T00:05:51.047Z,97206.34
2022-08-28T00:08:20.128Z,97213.94
2022-08-28T00:10:49.126Z,97219.16
2022-08-28T00:13:22.612Z,97218.22
2022-08-28T00:15:58.125Z,97221.63
2022-08-28T00:18:31.348Z,97216.03
2022-08-28T00:21:01.886Z,97214.16
2022-08-28T00:23:42.363Z,97215.22
2022-08-28T00:26:33.831Z,97215.28
2022-08-28T00:29:02.102Z,97220.97
2022-08-28T00:31:31.107Z,97218.19
2022-08-28T00:34:03.297Z,97220.59
2022-08-28T00:36:32.418Z,97216.78
2022-08-28T00:39:02.588Z,97220.22
2022-08-28T00:41:33.571Z,97224.50
2022-08-28T00:44:13.754Z,97215.63
2022-08-28T00:46:44.246Z,97212.59
2022-08-28T00:49:18.264Z,97228.81
2022-08-28T00:52:05.619Z,97219.22
2022-08-28T00:54:40.652Z,97224.06
2022-08-28T00:57:15.896Z,97215.94
2022-08-28T00:59:45.119Z,97210.03
2022-08-28T01:02:17.024Z,97220.00
2022-08-28T01:04:49.857Z,97216.78
2022-08-28T01:07:19.424Z,97219.22
2022-08-28T01:09:52.395Z,97222.25
2022-08-28T01:12:26.324Z,97225.50
2022-08-28T01:15:00.346Z,97217.56
2022-08-28T01:17:33.360Z,97207.19
2022-08-28T01:20:11.136Z,97214.84
2022-08-28T01:22:44.287Z,97213.75
2022-08-28T01:25:19.776Z,97200.66
2022-08-28T01:27:49.416Z,97204.00
2022-08-28T01:30:24.265Z,97200.59
2022-08-28T01:32:56.946Z,97202.72
2022-08-28T01:35:31.663Z,97216.22
2022-08-28T01:38:02.072Z,97220.13
2022-08-28T01:40:37.364Z,97208.69
2022-08-28T01:43:12.663Z,97214.28
2022-08-28T01:45:44.407Z,97203.00
2022-08-28T01:48:15.543Z,97207.84
2022-08-28T01:50:47.257Z,97210.31
2022-08-28T01:53:19.466Z,97212.88
2022-08-28T01:55:57.883Z,97216.38
2022-08-28T01:58:28.495Z,97215.88
2022-08-28T02:00:59.319Z,97219.91
2022-08-28T02:03:28.484Z,97218.75
2022-08-28T02:05:57.338Z,97223.31
2022-08-28T02:08:26.393Z,97224.09
2022-08-28T02:10:57.498Z,97216.56
2022-08-28T02:13:26.511Z,97214.41
2022-08-28T02:15:55.659Z,97214.03
2022-08-28T02:18:25.653Z,97220.34
2022-08-28T02:20:54.928Z,97221.66
2022-08-28T02:23:24.166Z,97223.59
2022-08-28T02:25:55.550Z,97218.47
2022-08-28T02:28:24.685Z,97214.84
2022-08-28T02:30:53.911Z,97212.41
2022-08-28T02:33:23.233Z,97213.91
2022-08-28T02:35:52.581Z,97211.53
2022-08-28T02:38:22.825Z,97217.09
2022-08-28T02:40:52.908Z,97211.06
2022-08-28T02:43:24.034Z,97218.09
2022-08-28T02:45:53.136Z,97222.06
2022-08-28T02:48:22.170Z,97216.47
2022-08-28T02:50:51.096Z,97206.91
2022-08-28T02:53:20.034Z,97212.31
2022-08-28T02:55:51.665Z,97213.13
2022-08-28T02:58:22.415Z,97211.03
2022-08-28T03:00:51.820Z,97213.53
2022-08-28T03:03:21.019Z,97211.34
2022-08-28T03:05:50.002Z,97210.16
2022-08-28T03:08:19.559Z,97201.56
2022-08-28T03:10:48.440Z,97195.31
2022-08-28T03:13:26.855Z,97205.81
2022-08-28T03:15:59.008Z,97193.06
2022-08-28T03:18:30.352Z,97190.84
2022-08-28T03:20:59.325Z,97191.69
2022-08-28T03:23:27.404Z,97200.50
2022-08-28T03:26:00.768Z,97201.13
2022-08-28T03:28:34.537Z,97198.06
2022-08-28T03:31:06.138Z,97197.16
2022-08-28T03:33:36.046Z,97209.44
2022-08-28T03:36:05.861Z,97206.69
2022-08-28T03:38:35.045Z,97213.41
2022-08-28T03:41:04.157Z,97214.47
2022-08-28T03:43:33.513Z,97211.53
2022-08-28T03:46:07.143Z,97204.19
2022-08-28T03:48:40.589Z,97214.63
2022-08-28T03:51:17.628Z,97212.16
2022-08-28T03:53:48.303Z,97214.72
2022-08-28T03:56:22.459Z,97211.38
2022-08-28T03:58:52.951Z,97227.44
2022-08-28T04:01:24.043Z,97229.78
2022-08-28T04:03:53.097Z,97228.47
2022-08-28T04:06:23.042Z,97227.66
2022-08-28T04:08:52.145Z,97225.72
2022-08-28T04:11:21.173Z,97226.97
2022-08-28T04:13:50.091Z,97237.66
2022-08-28T04:16:19.725Z,97238.06
2022-08-28T04:18:51.630Z,97242.09
2022-08-28T04:21:24.098Z,97249.09
2022-08-28T04:23:55.820Z,97247.78
2022-08-28T04:26:27.599Z,97244.41
2022-08-28T04:28:57.426Z,97243.69
2022-08-28T04:31:31.819Z,97253.59
2022-08-28T04:34:05.492Z,97250.38
2022-08-28T04:36:34.747Z,97257.88
2022-08-28T04:39:05.920Z,97248.72
2022-08-28T04:41:36.900Z,97260.03
2022-08-28T04:44:06.390Z,97256.38
2022-08-28T04:46:35.892Z,97254.97
2022-08-28T04:49:06.812Z,97263.84
2022-08-28T04:51:38.911Z,97261.91
2022-08-28T04:54:12.063Z,97263.56
2022-08-28T04:56:42.449Z,97269.75
2022-08-28T04:59:13.067Z,97262.94
2022-08-28T05:01:44.013Z,97269.41
2022-08-28T05:04:14.950Z,97269.91
2022-08-28T05:06:46.405Z,97269.59
2022-08-28T05:09:19.588Z,97275.72
2022-08-28T05:11:49.639Z,97278.38
2022-08-28T05:14:20.214Z,97280.56
2022-08-28T05:16:52.895Z,97280.75
2022-08-28T05:19:24.235Z,97289.72
2022-08-28T05:21:53.859Z,97286.25
2022-08-28T05:24:23.583Z,97291.31
2022-08-28T05:26:52.810Z,97302.44
2022-08-28T05:29:25.199Z,97305.47
2022-08-28T05:31:54.634Z,97310.75
2022-08-28T05:34:25.273Z,97309.59
2022-08-28T05:36:54.373Z,97309.97
2022-08-28T05:39:23.408Z,97316.22
2022-08-28T05:41:53.031Z,97323.88
2022-08-28T05:44:22.477Z,97318.97
2022-08-28T05:46:51.623Z,97318.28
2022-08-28T05:49:21.483Z,97314.88
2022-08-28T05:51:54.572Z,97319.59
2022-08-28T05:54:24.252Z,97321.31
2022-08-28T05:56:53.220Z,97323.41
2022-08-28T05:59:22.438Z,97317.84
2022-08-28T06:01:51.885Z,97317.63
2022-08-28T06:04:24.015Z,97317.16
2022-08-28T06:06:55.225Z,97322.31
2022-08-28T06:09:29.762Z,97330.03
2022-08-28T06:12:02.869Z,97323.19
2022-08-28T06:14:32.454Z,97327.28
2022-08-28T06:17:03.076Z,97333.88
2022-08-28T06:19:39.312Z,97331.19
2022-08-28T06:22:14.894Z,97323.81
2022-08-28T06:24:44.283Z,97329.09
2022-08-28T06:27:13.307Z,97330.47
2022-08-28T06:29:42.225Z,97327.81
2022-08-28T06:32:11.259Z,97327.91
2022-08-28T06:34:43.131Z,97337.06
2022-08-28T06:37:14.267Z,97340.34
2022-08-28T06:39:43.640Z,97343.22
2022-08-28T06:42:13.230Z,97342.44
2022-08-28T06:44:43.492Z,97341.97
2022-08-28T06:47:12.583Z,97341.09
2022-08-28T06:49:41.530Z,97338.44
2022-08-28T06:52:12.902Z,97333.78
2022-08-28T06:54:42.015Z,97341.59
2022-08-28T06:57:26.099Z,97343.66
2022-08-28T06:59:57.317Z,97349.28
2022-08-28T07:02:28.364Z,97348.94
2022-08-28T07:04:58.005Z,97356.53
2022-08-28T07:07:31.648Z,97343.50
2022-08-28T07:10:01.795Z,97353.56
2022-08-28T07:12:31.108Z,97355.97
2022-08-28T07:15:00.122Z,97356.16
2022-08-28T07:17:29.340Z,97363.09
2022-08-28T07:19:58.477Z,97362.03
2022-08-28T07:22:29.043Z,97358.63
2022-08-28T07:24:59.981Z,97365.28
2022-08-28T07:27:30.135Z,97356.06
2022-08-28T07:29:59.929Z,97359.78
2022-08-28T07:32:29.645Z,97353.72
2022-08-28T07:34:58.590Z,97362.03
2022-08-28T07:37:29.619Z,97368.50
2022-08-28T07:39:58.849Z,97374.38
2022-08-28T07:42:45.227Z,97373.41
2022-08-28T07:45:14.329Z,97369.91
2022-08-28T07:47:43.331Z,97373.63
2022-08-28T07:50:12.633Z,97375.91
2022-08-28T07:52:43.490Z,97373.63
2022-08-28T07:55:12.656Z,97365.09
2022-08-28T07:57:43.306Z,97364.25
2022-08-28T08:00:13.803Z,97374.41
2022-08-28T08:02:43.705Z,97373.28
2022-08-28T08:05:14.455Z,97376.59
2022-08-28T08:07:45.395Z,97379.75
2022-08-28T08:10:20.686Z,97378.88
2022-08-28T08:12:49.936Z,97379.25
2022-08-28T08:15:21.858Z,97384.97
2022-08-28T08:17:51.929Z,97378.31
2022-08-28T08:20:21.068Z,97381.16
2022-08-28T08:22:52.040Z,97370.22
2022-08-28T08:25:20.968Z,97375.56
2022-08-28T08:27:52.117Z,97381.38
2022-08-28T08:30:21.254Z,97384.75
2022-08-28T08:32:51.719Z,97390.94
2022-08-28T08:35:21.470Z,97385.03
2022-08-28T08:37:54.066Z,97385.81
2022-08-28T08:40:23.695Z,97385.34
2022-08-28T08:42:57.296Z,97378.88
2022-08-28T08:45:27.698Z,97384.84
2022-08-28T08:47:57.392Z,97382.38
2022-08-28T08:50:30.309Z,97387.22
2022-08-28T08:53:21.992Z,97376.97
2022-08-28T08:55:53.869Z,97379.41
2022-08-28T08:58:28.962Z,97383.22
2022-08-28T09:01:05.299Z,97382.00
2022-08-28T09:03:50.637Z,97386.47
2022-08-28T09:06:31.315Z,97385.50
2022-08-28T09:09:08.179Z,97386.53
2022-08-28T09:11:51.078Z,97387.31
2022-08-28T09:14:38.317Z,97383.22
2022-08-28T09:17:09.736Z,97383.97
2022-08-28T09:19:39.517Z,97395.28
2022-08-28T09:22:08.655Z,97386.63
2022-08-28T09:24:41.887Z,97392.16
2022-08-28T09:27:25.059Z,97386.22
2022-08-28T09:29:59.009Z,97381.94
2022-08-28T09:32:38.607Z,97386.22
2022-08-28T09:35:16.143Z,97386.31
2022-08-28T09:37:51.405Z,97383.06
2022-08-28T09:40:48.773Z,97383.47
2022-08-28T09:43:30.114Z,97380.72
2022-08-28T09:46:03.268Z,97384.81
2022-08-28T09:48:36.011Z,97390.63
2022-08-28T09:51:09.086Z,97397.22
2022-08-28T09:53:58.122Z,97383.78
2022-08-28T09:56:32.176Z,97388.88
2022-08-28T09:59:05.642Z,97396.94
2022-08-28T10:01:52.072Z,97397.16
2022-08-28T10:04:56.031Z,97389.16
2022-08-28T10:07:35.492Z,97398.06
2022-08-28T10:10:23.239Z,97391.53
2022-08-28T10:13:05.058Z,97389.50
2022-08-28T10:15:52.710Z,97388.75
2022-08-28T10:18:37.685Z,97394.22
2022-08-28T10:21:16.561Z,97384.53
2022-08-28T10:24:05.465Z,97374.81
2022-08-28T10:26:45.570Z,97376.31
2022-08-28T10:29:31.294Z,97378.44
2022-08-28T10:32:20.414Z,97380.38
2022-08-28T10:35:01.803Z,97375.75
2022-08-28T10:37:43.109Z,97371.91
2022-08-28T10:40:18.757Z,97383.72
2022-08-28T10:42:57.497Z,97383.34
2022-08-28T10:45:30.483Z,97383.09
2022-08-28T10:48:08.724Z,97379.69
2022-08-28T10:50:47.169Z,97382.50
2022-08-28T10:53:20.213Z,97383.53
2022-08-28T10:55:57.356Z,97376.50
2022-08-28T10:58:29.002Z,97376.28
2022-08-28T11:01:07.852Z,97379.31
2022-08-28T11:03:43.636Z,97381.84
2022-08-28T11:06:23.700Z,97377.03
2022-08-28T11:08:57.406Z,97373.28
2022-08-28T11:11:45.804Z,97373.88
2022-08-28T11:14:28.380Z,97379.41
2022-08-28T11:17:03.087Z,97381.69
2022-08-28T11:20:07.935Z,97373.88
2022-08-28T11:22:41.375Z,97373.88
2022-08-28T11:25:26.718Z,97371.09
2022-08-28T11:28:18.870Z,97371.84
2022-08-28T11:30:50.517Z,97376.63
2022-08-28T11:33:43.523Z,97369.59
2022-08-28T11:36:14.888Z,97365.47
2022-08-28T11:39:17.040Z,97368.25
2022-08-28T11:42:39.845Z,97365.16
2022-08-28T11:45:10.643Z,97357.34
2022-08-28T11:47:56.731Z,97360.56
2022-08-28T11:50:33.523Z,97364.31
2022-08-28T11:53:48.043Z,97357.59
2022-08-28T11:56:44.793Z,97353.41
2022-08-28T11:59:36.318Z,97350.09
2022-08-28T12:02:48.367Z,97355.72
2022-08-28T12:05:53.643Z,97352.25
2022-08-28T12:09:12.095Z,97352.97
2022-08-28T12:12:03.683Z,97361.72
2022-08-28T12:15:12.767Z,97356.06
2022-08-28T12:17:52.843Z,97353.72
2022-08-28T12:20:41.348Z,97350.75
2022-08-28T12:23:37.713Z,97348.00
2022-08-28T12:26:11.373Z,97346.34
2022-08-28T12:28:49.590Z,97347.47
2022-08-28T12:32:09.999Z,97342.47
2022-08-28T12:35:08.128Z,97334.41
2022-08-28T12:37:53.105Z,97331.53
2022-08-28T12:40:28.154Z,97330.66
2022-08-28T12:43:00.556Z,97330.34
2022-08-28T12:45:35.606Z,97323.25
2022-08-28T12:48:14.592Z,97317.81
2022-08-28T12:50:44.223Z,97319.75
2022-08-28T12:53:17.368Z,97316.72
2022-08-28T12:55:48.219Z,97309.78
2022-08-28T12:58:32.129Z,97311.09
2022-08-28T13:01:05.098Z,97314.00
2022-08-28T13:03:34.798Z,97321.69
2022-08-28T13:06:09.171Z,97315.88
2022-08-28T13:08:39.060Z,97313.22
2022-08-28T13:11:09.987Z,97311.88
2022-08-28T13:13:46.675Z,97308.41
2022-08-28T13:16:37.440Z,97307.03
2022-08-28T13:19:28.100Z,97308.94
2022-08-28T13:22:01.905Z,97304.16
2022-08-28T13:24:45.746Z,97306.50
2022-08-28T13:27:24.291Z,97300.03
2022-08-28T13:30:09.612Z,97304.97
2022-08-28T13:32:40.910Z,97303.94
2022-08-28T13:35:39.469Z,97308.19
2022-08-28T13:38:11.810Z,97304.44
2022-08-28T13:41:03.416Z,97302.50
2022-08-28T13:43:46.547Z,97300.50
2022-08-28T13:46:16.021Z,97295.53
2022-08-28T13:48:45.188Z,97305.19
2022-08-28T13:51:20.752Z,97293.19
2022-08-28T13:53:50.549Z,97287.41
2022-08-28T13:56:21.896Z,97285.84
2022-08-28T13:58:57.212Z,97289.50
2022-08-28T14:01:48.521Z,97289.44
2022-08-28T14:04:16.313Z,97287.28
2022-08-28T14:06:45.236Z,97291.03
2022-08-28T14:09:17.711Z,97285.59
2022-08-28T14:11:48.279Z,97291.88
2022-08-28T14:14:18.760Z,97289.53
2022-08-28T14:16:50.946Z,97288.78
2022-08-28T14:19:20.747Z,97287.81
2022-08-28T14:21:49.940Z,97289.00
2022-08-28T14:24:20.224Z,97290.66
2022-08-28T14:26:49.518Z,97292.25
2022-08-28T14:29:20.079Z,97301.13
2022-08-28T14:31:49.547Z,97300.38
2022-08-28T14:34:23.296Z,97312.72
2022-08-28T14:36:55.462Z,97317.09
2022-08-28T14:39:26.531Z,97321.22
2022-08-28T14:41:56.308Z,97329.34
2022-08-28T14:44:27.531Z,97331.53
2022-08-28T14:46:57.436Z,97359.59
2022-08-28T14:49:28.386Z,97366.50
2022-08-28T14:51:58.274Z,97359.78
2022-08-28T14:54:27.676Z,97369.00
2022-08-28T14:56:57.228Z,97375.44
2022-08-28T14:59:30.344Z,97387.84
2022-08-28T15:02:02.636Z,97388.09
2022-08-28T15:04:37.761Z,97389.19
2022-08-28T15:07:11.043Z,97377.78
2022-08-28T15:09:43.769Z,97370.06
2022-08-28T15:12:13.205Z,97365.03
2022-08-28T15:14:56.813Z,97365.19
2022-08-28T15:17:34.278Z,97364.53
2022-08-28T15:20:05.667Z,97362.78
2022-08-28T15:22:34.732Z,97362.31
2022-08-28T15:25:06.130Z,97359.97
2022-08-28T15:27:35.519Z,97353.25
2022-08-28T15:30:07.454Z,97356.72
2022-08-28T15:32:36.472Z,97357.00
2022-08-28T15:35:06.389Z,97368.22
2022-08-28T15:37:35.492Z,97362.31
2022-08-28T15:40:23.433Z,97357.69
2022-08-28T15:42:52.761Z,97352.94
2022-08-28T15:45:23.438Z,97360.78
2022-08-28T15:47:52.768Z,97362.75
2022-08-28T15:50:22.251Z,97362.34
2022-08-28T15:52:53.384Z,97366.56
2022-08-28T15:55:22.893Z,97378.06
2022-08-28T15:57:51.596Z,97374.16
2022-08-28T16:00:20.437Z,97366.84
2022-08-28T16:02:51.278Z,97374.88
2022-08-28T16:05:20.335Z,97378.28
2022-08-28T16:07:51.040Z,97380.59
2022-08-28T16:10:20.411Z,97375.22
2022-08-28T16:12:49.686Z,97377.84
2022-08-28T16:15:26.857Z,97367.66
2022-08-28T16:17:58.512Z,97375.56
2022-08-28T16:20:27.613Z,97378.34
2022-08-28T16:22:56.630Z,97380.31
2022-08-28T16:25:25.952Z,97393.00
2022-08-28T16:27:55.087Z,97380.66
2022-08-28T16:30:24.600Z,97390.41
2022-08-28T16:32:59.601Z,97381.16
2022-08-28T16:35:29.646Z,97378.59
2022-08-28T16:37:58.920Z,97378.13
2022-08-28T16:40:28.263Z,97376.06
2022-08-28T16:42:58.259Z,97377.50
2022-08-28T16:45:27.497Z,97380.81
2022-08-28T16:47:57.834Z,97375.75
2022-08-28T16:50:31.695Z,97380.28
2022-08-28T16:53:06.243Z,97388.19
2022-08-28T16:55:37.180Z,97396.53
2022-08-28T16:58:07.528Z,97402.03
2022-08-28T17:00:52.433Z,97410.50
2022-08-28T17:03:26.575Z,97406.44
2022-08-28T17:05:58.065Z,97412.47
2022-08-28T17:08:27.196Z,97410.13
2022-08-28T17:10:56.510Z,97423.13
2022-08-28T17:13:26.419Z,97424.84
2022-08-28T17:15:56.062Z,97440.53
2022-08-28T17:18:29.465Z,97432.22
2022-08-28T17:21:16.925Z,97426.69
2022-08-28T17:23:46.633Z,97428.25
2022-08-28T17:26:16.044Z,97422.75
2022-08-28T17:28:46.538Z,97429.56
2022-08-28T17:31:16.143Z,97442.53
2022-08-28T17:33:46.714Z,97443.28
2022-08-28T17:36:21.471Z,97447.75
2022-08-28T17:39:03.216Z,97443.06
2022-08-28T17:41:33.943Z,97446.88
2022-08-28T17:44:05.057Z,97453.56
2022-08-28T17:46:37.696Z,97456.59
2022-08-28T17:49:10.047Z,97453.00
2022-08-28T17:51:43.544Z,97468.69
2022-08-28T17:54:14.108Z,97468.41
2022-08-28T17:56:43.652Z,97465.53
2022-08-28T18:01:42.914Z,97473.34
2022-08-28T18:04:14.135Z,97473.03
2022-08-28T18:06:43.450Z,97489.28
2022-08-28T18:09:12.432Z,97486.47
2022-08-28T18:11:43.236Z,97491.00
2022-08-28T18:14:13.451Z,97486.94
2022-08-28T18:16:43.107Z,97497.19
2022-08-28T18:19:16.518Z,97501.38
2022-08-28T18:21:46.268Z,97510.50
2022-08-28T18:24:15.096Z,97507.75
2022-08-28T18:26:45.060Z,97514.19
2022-08-28T18:29:14.064Z,97515.25
2022-08-28T18:31:44.189Z,97525.50
2022-08-28T18:34:14.768Z,97523.88
2022-08-28T18:36:44.445Z,97525.97
2022-08-28T18:39:13.736Z,97536.50
2022-08-28T18:41:47.377Z,97538.50
2022-08-28T18:44:18.405Z,97540.41
2022-08-28T18:46:51.321Z,97540.41
2022-08-28T18:49:22.707Z,97544.19
2022-08-28T18:51:52.764Z,97549.22
2022-08-28T18:54:23.134Z,97555.78
2022-08-28T18:56:58.408Z,97560.47
2022-08-28T18:59:32.819Z,97565.75
2022-08-28T19:02:03.822Z,97577.25
2022-08-28T19:04:35.228Z,97562.63
2022-08-28T19:07:06.776Z,97571.56
2022-08-28T19:09:37.741Z,97570.50
2022-08-28T19:12:10.465Z,97574.88
2022-08-28T19:14:39.635Z,97568.63
2022-08-28T19:17:09.117Z,97571.38
2022-08-28T19:19:39.353Z,97575.72
2022-08-28T19:22:08.455Z,97576.22
2022-08-28T19:24:37.433Z,97575.94
2022-08-28T19:27:06.454Z,97585.88
2022-08-28T19:29:36.935Z,97589.09
2022-08-28T19:32:06.928Z,97591.66
2022-08-28T19:34:36.973Z,97589.97
2022-08-28T19:37:10.769Z,97589.03
2022-08-28T19:39:40.307Z,97585.03
2022-08-28T19:42:17.705Z,97589.97
2022-08-28T19:44:50.999Z,97601.63
2022-08-28T19:47:21.405Z,97597.66
2022-08-28T19:49:54.860Z,97602.47
2022-08-28T19:52:28.305Z,97603.91
2022-08-28T19:54:57.772Z,97605.91
2022-08-28T19:57:29.524Z,97603.16
2022-08-28T19:59:59.944Z,97599.56
2022-08-28T20:02:29.672Z,97604.94
2022-08-28T20:04:59.111Z,97614.47
2022-08-28T20:07:31.505Z,97615.97
2022-08-28T20:10:01.049Z,97613.50
2022-08-28T20:12:30.247Z,97614.75
2022-08-28T20:15:02.796Z,97614.81
2022-08-28T20:17:32.804Z,97616.53
2022-08-28T20:20:03.442Z,97614.88
2022-08-28T20:22:33.994Z,97612.94
2022-08-28T20:25:08.970Z,97612.28
2022-08-28T20:27:38.094Z,97614.66
2022-08-28T20:30:10.834Z,97615.31
2022-08-28T20:32:41.354Z,97616.84
2022-08-28T20:35:13.462Z,97613.97
2022-08-28T20:37:45.862Z,97620.75
2022-08-28T20:40:18.119Z,97613.22
2022-08-28T20:42:48.024Z,97619.78
2022-08-28T20:45:19.118Z,97624.88
2022-08-28T20:47:48.325Z,97625.47
2022-08-28T20:50:17.830Z,97626.97
2022-08-28T20:52:48.148Z,97628.69
2022-08-28T20:55:17.543Z,97623.78
2022-08-28T20:57:46.515Z,97624.13
2022-08-28T21:00:16.127Z,97629.03
2022-08-28T21:02:45.581Z,97627.75
2022-08-28T21:05:15.951Z,97630.63
2022-08-28T21:07:45.287Z,97633.53
2022-08-28T21:10:16.086Z,97637.53
2022-08-28T21:12:47.430Z,97640.69
2022-08-28T21:15:17.277Z,97636.00
2022-08-28T21:17:46.680Z,97637.25
2022-08-28T21:20:16.822Z,97636.09
2022-08-28T21:22:46.250Z,97637.03
2022-08-28T21:25:17.432Z,97644.16
2022-08-28T21:27:47.023Z,97646.25
2022-08-28T21:30:20.187Z,97648.44
2022-08-28T21:32:52.035Z,97647.66
2022-08-28T21:35:22.047Z,97650.13
2022-08-28T21:37:51.339Z,97652.13
2022-08-28T21:40:22.234Z,97647.38
2022-08-28T21:42:53.625Z,97649.84
2022-08-28T21:45:23.375Z,97647.94
2022-08-28T21:47:52.477Z,97648.84
2022-08-28T21:50:21.667Z,97654.94
2022-08-28T21:52:50.959Z,97654.88
2022-08-28T21:55:24.352Z,97656.00
2022-08-28T21:57:53.338Z,97656.28
2022-08-28T22:00:25.349Z,97654.88
2022-08-28T22:02:54.329Z,97653.44
2022-08-28T22:05:23.993Z,97662.19
2022-08-28T22:07:52.942Z,97663.50
2022-08-28T22:10:25.791Z,97651.56
2022-08-28T22:12:54.946Z,97652.81
2022-08-28T22:15:24.057Z,97657.91
2022-08-28T22:17:53.254Z,97663.22
2022-08-28T22:20:22.593Z,97656.78
2022-08-28T22:23:09.840Z,97662.16
2022-08-28T22:25:43.044Z,97660.59
2022-08-28T22:28:12.488Z,97654.88
2022-08-28T22:30:41.837Z,97643.28
2022-08-28T22:33:11.735Z,97654.47
2022-08-28T22:35:41.113Z,97647.47
2022-08-28T22:38:11.218Z,97652.69
2022-08-28T22:40:41.757Z,97652.19
2022-08-28T22:43:11.067Z,97652.81
2022-08-28T22:45:41.010Z,97644.69
2022-08-28T22:48:11.361Z,97652.53
2022-08-28T22:50:40.587Z,97651.75
2022-08-28T22:53:10.597Z,97653.13
2022-08-28T22:55:43.520Z,97655.97
2022-08-28T22:58:13.250Z,97657.59
2022-08-28T23:00:43.997Z,97650.63
2022-08-28T23:03:13.340Z,97654.97
2022-08-28T23:05:42.740Z,97652.28
2022-08-28T23:08:11.702Z,97661.13
2022-08-28T23:10:58.684Z,97656.91
2022-08-28T23:13:28.927Z,97652.88
2022-08-28T23:16:01.719Z,97643.03
2022-08-28T23:18:46.226Z,97648.88
2022-08-28T23:21:21.459Z,97653.44
2022-08-28T23:23:52.816Z,97651.59
2022-08-28T23:26:24.730Z,97653.28
2022-08-28T23:28:54.013Z,97649.22
2022-08-28T23:31:23.396Z,97652.88
2022-08-28T23:33:53.772Z,97651.34
2022-08-28T23:36:24.541Z,97645.78
2022-08-28T23:38:53.751Z,97646.19
2022-08-28T23:41:24.216Z,97637.06
2022-08-28T23:43:54.871Z,97633.06
2022-08-28T23:46:27.647Z,97642.56
2022-08-28T23:48:57.046Z,97643.38
2022-08-28T23:51:26.738Z,97639.75
2022-08-28T23:53:55.499Z,97633.97
2022-08-28T23:56:28.015Z,97634.31
2022-08-28T23:58:57.409Z,97634.25
